createdAt,value
2019-03-27T00:00:36.274Z,19.89
2019-03-27T00:01:36.259Z,19.77
2019-03-27T00:02:36.232Z,19.79
2019-03-27T00:03:36.230Z,19.77
2019-03-27T00:04:36.217Z,19.66
2019-03-27T00:05:36.248Z,19.64
2019-03-27T00:06:36.193Z,19.74
2019-03-27T00:07:36.184Z,19.67
2019-03-27T00:08:36.174Z,19.66
2019-03-27T00:09:36.177Z,19.63
2019-03-27T00:10:36.170Z,19.64
2019-03-27T00:11:36.152Z,19.62
2019-03-27T00:12:36.129Z,19.66
2019-03-27T00:13:36.120Z,19.59
2019-03-27T00:14:36.108Z,19.57
2019-03-27T00:15:36.113Z,19.49
2019-03-27T00:16:36.088Z,19.47
2019-03-27T00:17:36.080Z,19.49
2019-03-27T00:18:36.067Z,19.79
2019-03-27T00:19:36.194Z,20.14
2019-03-27T00:20:36.111Z,20.59
2019-03-27T00:21:36.088Z,20.96
2019-03-27T00:22:36.066Z,21.50
2019-03-27T00:23:36.062Z,21.96
2019-03-27T00:24:36.035Z,22.37
2019-03-27T00:25:36.225Z,22.76
2019-03-27T00:26:35.988Z,23.01
2019-03-27T00:27:35.992Z,23.28
2019-03-27T00:28:36.008Z,23.45
2019-03-27T00:29:35.987Z,23.66
2019-03-27T00:30:35.953Z,23.85
2019-03-27T00:31:35.933Z,24.00
2019-03-27T00:32:35.923Z,24.07
2019-03-27T00:33:35.903Z,24.44
2019-03-27T00:34:35.899Z,24.58
2019-03-27T00:35:35.912Z,24.71
2019-03-27T00:36:35.874Z,24.92
2019-03-27T00:37:35.873Z,25.11
2019-03-27T00:38:35.850Z,25.11
2019-03-27T00:39:35.846Z,25.24
2019-03-27T00:40:35.830Z,25.40
2019-03-27T00:41:35.836Z,25.36
2019-03-27T00:42:35.812Z,25.58
2019-03-27T00:43:35.800Z,25.70
2019-03-27T00:44:35.791Z,25.83
2019-03-27T00:45:35.785Z,25.89
2019-03-27T00:46:35.842Z,26.10
2019-03-27T00:47:35.762Z,26.16
2019-03-27T00:48:35.749Z,26.27
2019-03-27T00:49:35.732Z,26.33
2019-03-27T00:50:35.727Z,26.39
2019-03-27T00:51:35.732Z,26.37
2019-03-27T00:52:35.709Z,26.44
2019-03-27T00:53:35.693Z,26.51
2019-03-27T00:54:35.688Z,26.53
2019-03-27T00:55:35.678Z,26.63
2019-03-27T00:56:35.681Z,26.73
2019-03-27T00:57:35.729Z,26.92
2019-03-27T00:58:35.726Z,27.03
2019-03-27T00:59:35.722Z,27.15
2019-03-27T01:00:35.738Z,27.18
2019-03-27T01:01:35.732Z,27.37
2019-03-27T01:02:35.671Z,27.38
2019-03-27T01:03:35.623Z,27.43
2019-03-27T01:04:35.646Z,27.40
2019-03-27T01:05:35.663Z,27.52
2019-03-27T01:06:35.756Z,27.52
2019-03-27T01:07:35.594Z,27.53
2019-03-27T01:08:35.556Z,27.50
2019-03-27T01:09:35.538Z,27.44
2019-03-27T01:10:35.584Z,27.43
2019-03-27T01:11:35.615Z,27.28
2019-03-27T01:12:35.557Z,27.29
2019-03-27T01:13:35.509Z,27.33
2019-03-27T01:14:35.515Z,27.28
2019-03-27T01:15:40.133Z,27.37
2019-03-27T01:16:36.572Z,27.50
2019-03-27T01:17:35.475Z,27.61
2019-03-27T01:18:35.459Z,27.72
2019-03-27T01:19:35.448Z,27.81
2019-03-27T01:20:35.445Z,27.93
2019-03-27T01:21:35.610Z,28.01
2019-03-27T01:22:35.460Z,27.98
2019-03-27T01:23:35.451Z,28.01
2019-03-27T01:24:35.424Z,28.15
2019-03-27T01:25:35.424Z,28.18
2019-03-27T01:26:35.379Z,28.20
2019-03-27T01:27:35.905Z,28.15
2019-03-27T01:28:35.366Z,28.18
2019-03-27T01:29:35.381Z,28.09
2019-03-27T01:30:35.370Z,28.04
2019-03-27T01:31:35.333Z,28.03
2019-03-27T01:32:35.763Z,27.95
2019-03-27T01:33:35.393Z,27.85
2019-03-27T01:34:35.396Z,27.78
2019-03-27T01:35:35.248Z,27.71
2019-03-27T01:36:35.241Z,27.67
2019-03-27T01:37:35.243Z,27.68
2019-03-27T01:38:35.219Z,27.67
2019-03-27T01:39:35.212Z,27.85
2019-03-27T01:40:35.199Z,27.91
2019-03-27T01:41:35.190Z,27.97
2019-03-27T01:42:35.191Z,28.10
2019-03-27T01:43:35.163Z,28.23
2019-03-27T01:44:35.154Z,28.31
2019-03-27T01:45:35.141Z,28.35
2019-03-27T01:46:35.135Z,28.52
2019-03-27T01:47:35.139Z,28.60
2019-03-27T01:48:35.114Z,28.70
2019-03-27T01:49:35.100Z,28.67
2019-03-27T01:50:35.166Z,28.62
2019-03-27T01:51:35.101Z,28.60
2019-03-27T01:52:35.198Z,28.55
2019-03-27T01:53:35.101Z,28.55
2019-03-27T01:54:35.099Z,28.50
2019-03-27T01:55:35.102Z,28.43
2019-03-27T01:56:35.044Z,28.40
2019-03-27T01:57:35.111Z,28.35
2019-03-27T01:58:35.009Z,28.33
2019-03-27T01:59:34.995Z,28.34
2019-03-27T02:00:34.984Z,28.43
2019-03-27T02:01:34.976Z,28.47
2019-03-27T02:02:34.996Z,28.60
2019-03-27T02:03:34.952Z,28.59
2019-03-27T02:04:34.943Z,28.72
2019-03-27T02:05:34.932Z,28.83
2019-03-27T02:06:34.920Z,28.89
2019-03-27T02:07:34.938Z,29.02
2019-03-27T02:08:34.903Z,28.94
2019-03-27T02:09:34.896Z,29.07
2019-03-27T02:10:34.879Z,29.07
2019-03-27T02:11:34.871Z,29.00
2019-03-27T02:12:34.858Z,29.05
2019-03-27T02:13:34.866Z,28.90
2019-03-27T02:14:34.837Z,28.83
2019-03-27T02:15:34.826Z,28.87
2019-03-27T02:16:34.815Z,28.74
2019-03-27T02:17:34.807Z,28.67
2019-03-27T02:18:34.857Z,28.64
2019-03-27T02:19:34.782Z,28.64
2019-03-27T02:20:34.778Z,28.55
2019-03-27T02:21:34.763Z,28.47
2019-03-27T02:22:34.755Z,28.33
2019-03-27T02:23:34.768Z,28.22
2019-03-27T02:24:34.736Z,28.13
2019-03-27T02:25:34.722Z,28.03
2019-03-27T02:26:34.717Z,27.93
2019-03-27T02:27:34.697Z,27.85
2019-03-27T02:28:34.707Z,27.66
2019-03-27T02:29:34.684Z,27.61
2019-03-27T02:30:34.674Z,27.48
2019-03-27T02:31:34.662Z,27.35
2019-03-27T02:32:34.649Z,27.22
2019-03-27T02:33:34.656Z,27.15
2019-03-27T02:34:34.631Z,27.05
2019-03-27T02:35:34.638Z,27.10
2019-03-27T02:36:34.604Z,27.08
2019-03-27T02:37:34.597Z,27.07
2019-03-27T02:38:34.614Z,27.16
2019-03-27T02:39:34.574Z,27.22
2019-03-27T02:40:34.566Z,27.43
2019-03-27T02:41:34.560Z,27.73
2019-03-27T02:42:34.608Z,27.93
2019-03-27T02:43:34.665Z,28.18
2019-03-27T02:44:34.554Z,28.40
2019-03-27T02:45:34.542Z,28.62
2019-03-27T02:46:34.532Z,28.84
2019-03-27T02:47:34.532Z,29.05
2019-03-27T02:48:34.528Z,29.07
2019-03-27T02:49:35.366Z,29.25
2019-03-27T02:50:34.509Z,29.35
2019-03-27T02:51:34.452Z,29.39
2019-03-27T02:52:34.443Z,29.42
2019-03-27T02:53:34.426Z,29.43
2019-03-27T02:54:34.434Z,29.49
2019-03-27T02:55:34.451Z,29.35
2019-03-27T02:56:34.399Z,29.28
2019-03-27T02:57:34.396Z,29.28
2019-03-27T02:58:34.379Z,29.25
2019-03-27T02:59:34.423Z,29.21
2019-03-27T03:00:34.358Z,29.16
2019-03-27T03:01:34.340Z,29.13
2019-03-27T03:02:34.334Z,29.25
2019-03-27T03:03:34.322Z,29.35
2019-03-27T03:04:34.337Z,29.43
2019-03-27T03:05:34.300Z,29.43
2019-03-27T03:06:34.291Z,29.46
2019-03-27T03:07:34.282Z,29.47
2019-03-27T03:08:34.265Z,29.62
2019-03-27T03:09:34.276Z,29.59
2019-03-27T03:10:34.249Z,29.61
2019-03-27T03:11:34.236Z,29.69
2019-03-27T03:12:34.829Z,29.67
2019-03-27T03:13:34.293Z,29.62
2019-03-27T03:14:34.228Z,29.57
2019-03-27T03:15:34.298Z,29.44
2019-03-27T03:16:41.954Z,29.40
2019-03-27T03:17:35.395Z,29.31
2019-03-27T03:18:34.215Z,29.24
2019-03-27T03:19:34.172Z,29.13
2019-03-27T03:20:34.797Z,29.16
2019-03-27T03:21:34.178Z,29.21
2019-03-27T03:22:34.207Z,29.27
2019-03-27T03:23:34.143Z,29.27
2019-03-27T03:24:34.127Z,29.32
2019-03-27T03:25:34.092Z,29.43
2019-03-27T03:26:34.118Z,29.50
2019-03-27T03:27:34.078Z,29.58
2019-03-27T03:28:34.064Z,29.64
2019-03-27T03:29:34.414Z,29.67
2019-03-27T03:30:34.049Z,29.64
2019-03-27T03:31:34.042Z,29.59
2019-03-27T03:32:34.029Z,29.62
2019-03-27T03:33:34.040Z,29.59
2019-03-27T03:34:34.024Z,29.50
2019-03-27T03:35:33.984Z,29.43
2019-03-27T03:36:33.976Z,29.32
2019-03-27T03:37:33.984Z,29.34
2019-03-27T03:38:33.959Z,29.31
2019-03-27T03:39:33.942Z,29.31
2019-03-27T03:40:34.130Z,29.28
2019-03-27T03:41:33.951Z,29.25
2019-03-27T03:42:34.213Z,29.37
2019-03-27T03:43:33.956Z,29.47
2019-03-27T03:44:34.515Z,29.44
2019-03-27T03:45:34.282Z,29.57
2019-03-27T03:46:34.011Z,29.67
2019-03-27T03:47:33.923Z,29.71
2019-03-27T03:48:34.038Z,29.59
2019-03-27T03:49:33.847Z,29.65
2019-03-27T03:50:33.878Z,29.59
2019-03-27T03:51:33.822Z,29.61
2019-03-27T03:52:34.010Z,29.65
2019-03-27T03:53:34.400Z,29.52
2019-03-27T03:54:33.805Z,29.47
2019-03-27T03:55:33.794Z,29.35
2019-03-27T03:56:33.764Z,29.31
2019-03-27T03:57:33.757Z,29.31
2019-03-27T03:58:33.742Z,29.31
2019-03-27T03:59:33.728Z,29.40
2019-03-27T04:00:33.886Z,29.40
2019-03-27T04:01:33.717Z,29.39
2019-03-27T04:02:33.702Z,29.55
2019-03-27T04:03:33.688Z,29.61
2019-03-27T04:04:33.678Z,29.64
2019-03-27T04:05:33.681Z,29.65
2019-03-27T04:06:33.658Z,29.69
2019-03-27T04:07:33.641Z,29.69
2019-03-27T04:08:33.641Z,29.71
2019-03-27T04:09:33.623Z,29.71
2019-03-27T04:10:33.645Z,29.77
2019-03-27T04:11:33.601Z,29.62
2019-03-27T04:12:33.598Z,29.67
2019-03-27T04:13:33.626Z,29.62
2019-03-27T04:14:33.715Z,29.53
2019-03-27T04:15:33.733Z,29.44
2019-03-27T04:16:33.576Z,29.28
2019-03-27T04:17:33.576Z,29.22
2019-03-27T04:18:33.538Z,29.21
2019-03-27T04:19:33.629Z,29.09
2019-03-27T04:20:33.589Z,29.00
2019-03-27T04:21:33.520Z,28.82
2019-03-27T04:22:33.519Z,28.72
2019-03-27T04:23:33.478Z,28.60
2019-03-27T04:24:33.470Z,28.59
2019-03-27T04:26:06.379Z,28.55
2019-03-27T04:26:34.456Z,28.57
2019-03-27T04:27:33.436Z,28.53
2019-03-27T04:28:33.428Z,28.60
2019-03-27T04:29:33.420Z,28.80
2019-03-27T04:30:33.430Z,28.92
2019-03-27T04:31:33.395Z,28.96
2019-03-27T04:32:33.429Z,29.03
2019-03-27T04:33:33.380Z,29.09
2019-03-27T04:34:33.374Z,29.13
2019-03-27T04:35:33.373Z,29.13
2019-03-27T04:36:33.349Z,29.18
2019-03-27T04:37:33.332Z,29.32
2019-03-27T04:38:33.327Z,29.32
2019-03-27T04:39:33.312Z,29.39
2019-03-27T04:40:33.321Z,29.43
2019-03-27T04:41:33.293Z,29.53
2019-03-27T04:42:33.291Z,29.61
2019-03-27T04:43:33.271Z,29.61
2019-03-27T04:44:33.263Z,29.58
2019-03-27T04:45:33.269Z,29.57
2019-03-27T04:46:33.248Z,29.50
2019-03-27T04:47:33.228Z,29.49
2019-03-27T04:48:33.220Z,29.44
2019-03-27T04:49:33.236Z,29.32
2019-03-27T04:50:33.214Z,29.25
2019-03-27T04:51:33.190Z,29.10
2019-03-27T04:52:33.177Z,28.97
2019-03-27T04:53:33.167Z,28.90
2019-03-27T04:54:33.156Z,28.80
2019-03-27T04:55:33.158Z,28.64
2019-03-27T04:56:33.136Z,28.55
2019-03-27T04:57:33.123Z,28.43
2019-03-27T04:58:33.114Z,28.22
2019-03-27T04:59:33.114Z,28.16
2019-03-27T05:00:33.114Z,28.06
2019-03-27T05:01:33.087Z,28.06
2019-03-27T05:02:33.075Z,27.90
2019-03-27T05:03:33.062Z,27.78
2019-03-27T05:04:33.048Z,27.73
2019-03-27T05:05:33.042Z,27.81
2019-03-27T05:06:33.038Z,27.78
2019-03-27T05:07:33.037Z,27.90
2019-03-27T05:08:33.084Z,28.04
2019-03-27T05:09:33.008Z,28.22
2019-03-27T05:10:33.852Z,28.43
2019-03-27T05:11:33.054Z,28.72
2019-03-27T05:12:33.010Z,28.89
2019-03-27T05:13:32.977Z,28.97
2019-03-27T05:14:32.943Z,29.06
2019-03-27T05:15:32.931Z,29.25
2019-03-27T05:16:32.934Z,29.28
2019-03-27T05:17:45.172Z,29.34
2019-03-27T05:18:33.898Z,29.34
2019-03-27T05:19:32.892Z,29.28
2019-03-27T05:20:32.881Z,29.40
2019-03-27T05:21:32.884Z,29.43
2019-03-27T05:22:32.856Z,29.53
2019-03-27T05:23:32.851Z,29.61
2019-03-27T05:24:32.839Z,29.68
2019-03-27T05:25:32.825Z,29.57
2019-03-27T05:26:32.832Z,29.58
2019-03-27T05:27:36.039Z,29.62
2019-03-27T05:28:32.795Z,29.67
2019-03-27T05:29:32.788Z,29.59
2019-03-27T05:30:32.776Z,29.57
2019-03-27T05:31:32.778Z,29.57
2019-03-27T05:32:32.754Z,29.57
2019-03-27T05:33:32.935Z,29.69
2019-03-27T05:34:32.741Z,29.68
2019-03-27T05:35:32.811Z,29.62
2019-03-27T05:36:32.720Z,29.69
2019-03-27T05:37:32.702Z,29.65
2019-03-27T05:38:32.691Z,29.74
2019-03-27T05:39:32.685Z,29.74
2019-03-27T05:40:32.665Z,29.76
2019-03-27T05:41:32.697Z,29.83
2019-03-27T05:42:32.652Z,29.80
2019-03-27T05:43:32.638Z,29.87
2019-03-27T05:44:32.627Z,29.86
2019-03-27T05:45:32.613Z,29.94
2019-03-27T05:46:32.606Z,29.96
2019-03-27T05:47:32.612Z,30.06
2019-03-27T05:48:32.584Z,29.99
2019-03-27T05:49:32.573Z,30.03
2019-03-27T05:50:32.562Z,29.96
2019-03-27T05:51:32.550Z,29.98
2019-03-27T05:52:32.558Z,29.98
2019-03-27T05:53:32.540Z,30.01
2019-03-27T05:54:32.519Z,30.02
2019-03-27T05:55:32.516Z,30.03
2019-03-27T05:56:32.501Z,30.03
2019-03-27T05:57:32.509Z,30.08
2019-03-27T05:58:32.484Z,30.08
2019-03-27T05:59:32.471Z,30.05
2019-03-27T06:00:33.605Z,30.03
2019-03-27T06:01:32.447Z,29.99
2019-03-27T06:02:32.454Z,29.90
2019-03-27T06:03:32.428Z,29.89
2019-03-27T06:04:32.416Z,29.73
2019-03-27T06:05:32.407Z,29.53
2019-03-27T06:06:32.393Z,29.37
2019-03-27T06:07:32.401Z,29.00
2019-03-27T06:08:32.378Z,28.55
2019-03-27T06:09:32.364Z,28.10
2019-03-27T06:10:32.362Z,27.55
2019-03-27T06:11:32.340Z,27.19
2019-03-27T06:12:32.359Z,26.64
2019-03-27T06:13:32.324Z,26.23
2019-03-27T06:14:32.313Z,25.85
2019-03-27T06:15:32.309Z,25.56
2019-03-27T06:16:32.302Z,25.21
2019-03-27T06:17:32.300Z,25.03
2019-03-27T06:18:32.275Z,24.88
2019-03-27T06:19:32.269Z,24.69
2019-03-27T06:20:32.257Z,24.65
2019-03-27T06:21:32.248Z,24.48
2019-03-27T06:22:32.246Z,24.21
2019-03-27T06:23:32.226Z,24.01
2019-03-27T06:24:32.211Z,23.92
2019-03-27T06:25:32.199Z,23.82
2019-03-27T06:26:32.191Z,23.88
2019-03-27T06:27:32.208Z,23.95
2019-03-27T06:28:32.190Z,24.13
2019-03-27T06:29:32.158Z,24.40
2019-03-27T06:30:32.154Z,24.55
2019-03-27T06:31:32.140Z,24.68
2019-03-27T06:32:32.133Z,24.81
2019-03-27T06:33:32.131Z,24.86
2019-03-27T06:34:32.110Z,24.84
2019-03-27T06:35:32.100Z,24.94
2019-03-27T06:36:32.088Z,24.89
2019-03-27T06:37:32.086Z,24.75
2019-03-27T06:38:32.083Z,24.79
2019-03-27T06:39:32.056Z,24.78
2019-03-27T06:40:32.046Z,24.79
2019-03-27T06:41:32.039Z,24.77
2019-03-27T06:42:32.026Z,24.94
2019-03-27T06:43:32.038Z,24.81
2019-03-27T06:44:32.013Z,24.82
2019-03-27T06:45:32.008Z,24.78
2019-03-27T06:46:31.987Z,24.86
2019-03-27T06:47:31.978Z,24.79
2019-03-27T06:48:31.982Z,24.88
2019-03-27T06:49:31.961Z,24.88
2019-03-27T06:50:31.944Z,24.86
2019-03-27T06:51:39.912Z,24.88
2019-03-27T06:52:32.926Z,24.99
2019-03-27T06:53:31.933Z,24.99
2019-03-27T06:54:31.903Z,25.09
2019-03-27T06:55:31.897Z,25.06
2019-03-27T06:56:31.887Z,25.14
2019-03-27T06:57:31.869Z,25.07
2019-03-27T06:58:31.883Z,24.99
2019-03-27T06:59:31.851Z,25.06
2019-03-27T07:00:31.837Z,25.00
2019-03-27T07:01:31.830Z,25.06
2019-03-27T07:02:31.832Z,25.03
2019-03-27T07:03:31.822Z,25.03
2019-03-27T07:04:31.803Z,24.96
2019-03-27T07:05:31.791Z,25.06
2019-03-27T07:06:31.779Z,25.01
2019-03-27T07:07:31.765Z,24.85
2019-03-27T07:08:31.772Z,24.71
2019-03-27T07:09:31.747Z,24.77
2019-03-27T07:10:31.738Z,24.68
2019-03-27T07:11:31.727Z,24.71
2019-03-27T07:12:31.714Z,24.62
2019-03-27T07:13:31.729Z,24.62
2019-03-27T07:14:31.697Z,24.56
2019-03-27T07:15:31.692Z,24.55
2019-03-27T07:16:31.679Z,24.62
2019-03-27T07:17:31.667Z,24.68
2019-03-27T07:18:40.092Z,24.65
2019-03-27T07:19:32.645Z,24.77
2019-03-27T07:20:31.632Z,24.59
2019-03-27T07:21:31.624Z,24.74
2019-03-27T07:22:31.612Z,24.61
2019-03-27T07:23:31.617Z,24.74
2019-03-27T07:24:31.593Z,24.75
2019-03-27T07:25:31.579Z,24.77
2019-03-27T07:26:31.567Z,24.59
2019-03-27T07:27:31.557Z,24.68
2019-03-27T07:28:31.565Z,24.59
2019-03-27T07:29:31.535Z,24.65
2019-03-27T07:30:31.529Z,24.61
2019-03-27T07:31:31.517Z,24.66
2019-03-27T07:32:31.517Z,24.61
2019-03-27T07:33:31.511Z,24.66
2019-03-27T07:34:31.491Z,24.61
2019-03-27T07:35:31.477Z,24.81
2019-03-27T07:36:31.465Z,24.66
2019-03-27T07:37:31.462Z,24.66
2019-03-27T07:38:31.459Z,24.68
2019-03-27T07:39:31.431Z,24.62
2019-03-27T07:40:31.435Z,24.77
2019-03-27T07:41:31.414Z,24.66
2019-03-27T07:42:31.402Z,24.71
2019-03-27T07:43:31.422Z,24.74
2019-03-27T07:44:31.379Z,24.61
2019-03-27T07:45:31.382Z,24.62
2019-03-27T07:46:31.361Z,24.62
2019-03-27T07:47:31.348Z,24.65
2019-03-27T07:48:31.360Z,24.62
2019-03-27T07:49:31.331Z,24.51
2019-03-27T07:50:31.320Z,24.47
2019-03-27T07:51:31.309Z,24.32
2019-03-27T07:52:31.299Z,24.22
2019-03-27T07:53:31.305Z,24.10
2019-03-27T07:54:31.276Z,23.96
2019-03-27T07:55:31.279Z,23.81
2019-03-27T07:56:31.258Z,23.73
2019-03-27T07:57:31.248Z,23.45
2019-03-27T07:58:31.249Z,23.39
2019-03-27T07:59:31.222Z,23.10
2019-03-27T08:00:31.215Z,23.07
2019-03-27T08:01:31.203Z,22.92
2019-03-27T08:02:31.196Z,22.77
2019-03-27T08:03:31.224Z,22.65
2019-03-27T08:04:31.173Z,22.59
2019-03-27T08:05:31.166Z,22.43
2019-03-27T08:06:31.167Z,22.44
2019-03-27T08:07:31.166Z,22.44
2019-03-27T08:08:31.132Z,22.55
2019-03-27T08:09:31.134Z,22.46
2019-03-27T08:10:31.116Z,22.62
2019-03-27T08:11:31.263Z,22.93
2019-03-27T08:12:31.090Z,23.18
2019-03-27T08:13:31.079Z,23.49
2019-03-27T08:14:31.080Z,23.74
2019-03-27T08:15:31.057Z,23.89
2019-03-27T08:16:31.046Z,24.14
2019-03-27T08:17:31.030Z,24.29
2019-03-27T08:18:31.026Z,24.41
2019-03-27T08:19:31.035Z,24.44
2019-03-27T08:20:31.003Z,24.48
2019-03-27T08:21:31.473Z,24.50
2019-03-27T08:22:30.981Z,24.56
2019-03-27T08:23:30.978Z,24.55
2019-03-27T08:24:30.982Z,24.50
2019-03-27T08:25:30.951Z,24.55
2019-03-27T08:26:30.938Z,24.53
2019-03-27T08:27:30.931Z,24.58
2019-03-27T08:28:30.919Z,24.66
2019-03-27T08:29:30.926Z,24.65
2019-03-27T08:30:30.893Z,24.77
2019-03-27T08:31:30.884Z,24.77
2019-03-27T08:32:30.877Z,24.75
2019-03-27T08:33:30.866Z,24.75
2019-03-27T08:34:30.869Z,24.77
2019-03-27T08:35:30.850Z,24.74
2019-03-27T08:36:30.837Z,24.71
2019-03-27T08:37:30.821Z,24.68
2019-03-27T08:38:30.810Z,24.65
2019-03-27T08:39:30.829Z,24.75
2019-03-27T08:40:30.793Z,24.78
2019-03-27T08:41:30.784Z,24.74
2019-03-27T08:42:30.777Z,24.74
2019-03-27T08:43:30.758Z,24.92
2019-03-27T08:44:30.760Z,24.86
2019-03-27T08:45:30.735Z,24.85
2019-03-27T08:46:30.728Z,24.86
2019-03-27T08:47:30.720Z,24.93
2019-03-27T08:48:30.707Z,24.92
2019-03-27T08:49:30.710Z,24.71
2019-03-27T08:50:30.693Z,24.79
2019-03-27T08:51:30.689Z,24.81
2019-03-27T08:52:30.667Z,24.74
2019-03-27T08:53:30.661Z,24.92
2019-03-27T08:54:30.682Z,24.89
2019-03-27T08:55:30.632Z,24.94
2019-03-27T08:56:30.625Z,24.92
2019-03-27T08:57:30.616Z,24.93
2019-03-27T08:58:30.602Z,24.89
2019-03-27T08:59:30.595Z,24.85
2019-03-27T09:00:30.597Z,24.88
2019-03-27T09:01:30.572Z,24.85
2019-03-27T09:02:30.557Z,24.78
2019-03-27T09:03:30.554Z,24.92
2019-03-27T09:04:30.538Z,24.81
2019-03-27T09:05:30.550Z,24.81
2019-03-27T09:06:33.902Z,24.85
2019-03-27T09:07:30.501Z,24.99
2019-03-27T09:08:30.496Z,24.97
2019-03-27T09:09:30.489Z,25.03
2019-03-27T09:10:30.490Z,24.97
2019-03-27T09:11:30.465Z,24.97
2019-03-27T09:12:30.453Z,24.99
2019-03-27T09:13:30.446Z,25.00
2019-03-27T09:14:30.428Z,24.99
2019-03-27T09:15:30.446Z,25.00
2019-03-27T09:16:30.409Z,24.97
2019-03-27T09:17:30.401Z,24.96
2019-03-27T09:18:30.398Z,25.06
2019-03-27T09:19:35.970Z,25.06
2019-03-27T09:20:31.388Z,25.03
2019-03-27T09:21:30.360Z,25.07
2019-03-27T09:22:30.347Z,25.09
2019-03-27T09:23:30.340Z,25.04
2019-03-27T09:24:30.330Z,24.99
2019-03-27T09:25:30.334Z,24.97
2019-03-27T09:26:30.309Z,24.94
2019-03-27T09:27:30.307Z,25.00
2019-03-27T09:28:30.286Z,25.01
2019-03-27T09:29:30.286Z,25.04
2019-03-27T09:30:30.283Z,25.00
2019-03-27T09:31:43.660Z,25.14
2019-03-27T09:32:31.243Z,25.06
2019-03-27T09:33:30.237Z,25.07
2019-03-27T09:34:30.225Z,25.03
2019-03-27T09:35:30.234Z,25.07
2019-03-27T09:36:30.208Z,25.01
2019-03-27T09:37:30.201Z,24.99
2019-03-27T09:38:30.185Z,24.97
2019-03-27T09:39:30.194Z,25.01
2019-03-27T09:40:30.172Z,24.97
2019-03-27T09:41:30.158Z,25.11
2019-03-27T09:42:30.140Z,25.07
2019-03-27T09:43:30.132Z,25.11
2019-03-27T09:44:30.121Z,25.19
2019-03-27T09:45:30.153Z,25.11
2019-03-27T09:46:30.096Z,25.11
2019-03-27T09:47:30.091Z,25.11
2019-03-27T09:48:30.078Z,25.09
2019-03-27T09:49:30.076Z,25.11
2019-03-27T09:50:30.090Z,24.99
2019-03-27T09:51:30.047Z,25.01
2019-03-27T09:52:30.037Z,25.06
2019-03-27T09:53:30.028Z,25.03
2019-03-27T09:54:30.020Z,25.06
2019-03-27T09:55:30.005Z,25.18
2019-03-27T09:56:30.015Z,25.16
2019-03-27T09:57:29.987Z,25.18
2019-03-27T09:58:29.973Z,25.14
2019-03-27T09:59:29.972Z,25.15
2019-03-27T10:00:29.969Z,25.09
2019-03-27T10:01:29.960Z,25.19
2019-03-27T10:02:29.935Z,25.14
2019-03-27T10:03:29.924Z,25.04
2019-03-27T10:04:29.915Z,25.06
2019-03-27T10:05:29.906Z,25.12
2019-03-27T10:06:29.910Z,25.07
2019-03-27T10:07:29.886Z,25.14
2019-03-27T10:08:29.877Z,25.15
2019-03-27T10:09:29.862Z,25.16
2019-03-27T10:10:29.854Z,25.16
2019-03-27T10:11:29.865Z,25.16
2019-03-27T10:12:29.836Z,25.24
2019-03-27T10:13:29.818Z,25.12
2019-03-27T10:14:29.812Z,25.15
2019-03-27T10:15:29.805Z,25.14
2019-03-27T10:16:29.806Z,25.07
2019-03-27T10:17:29.780Z,24.86
2019-03-27T10:18:29.856Z,24.86
2019-03-27T10:19:29.763Z,24.79
2019-03-27T10:20:29.755Z,24.62
2019-03-27T10:21:29.755Z,24.53
2019-03-27T10:22:29.731Z,24.28
2019-03-27T10:23:29.730Z,24.18
2019-03-27T10:24:29.723Z,24.16
2019-03-27T10:25:29.706Z,23.95
2019-03-27T10:26:29.702Z,23.94
2019-03-27T10:27:29.684Z,23.82
2019-03-27T10:28:29.670Z,23.91
2019-03-27T10:29:29.665Z,23.89
2019-03-27T10:30:29.652Z,23.89
2019-03-27T10:31:29.655Z,23.91
2019-03-27T10:32:29.633Z,24.01
2019-03-27T10:33:29.625Z,24.07
2019-03-27T10:34:29.613Z,24.31
2019-03-27T10:35:29.599Z,24.46
2019-03-27T10:36:29.614Z,24.56
2019-03-27T10:37:29.588Z,24.75
2019-03-27T10:38:29.577Z,24.79
2019-03-27T10:39:29.562Z,24.93
2019-03-27T10:40:29.558Z,24.99
2019-03-27T10:41:29.560Z,25.07
2019-03-27T10:42:29.530Z,25.11
2019-03-27T10:43:29.519Z,25.11
2019-03-27T10:44:29.504Z,25.12
2019-03-27T10:45:29.499Z,25.07
2019-03-27T10:46:29.507Z,25.01
2019-03-27T10:47:29.476Z,24.96
2019-03-27T10:48:29.471Z,24.94
2019-03-27T10:49:29.455Z,24.96
2019-03-27T10:50:29.450Z,24.99
2019-03-27T10:51:29.465Z,24.97
2019-03-27T10:52:29.427Z,24.97
2019-03-27T10:53:29.419Z,24.96
2019-03-27T10:54:29.410Z,24.99
2019-03-27T10:55:29.398Z,25.01
2019-03-27T10:56:29.388Z,24.96
2019-03-27T10:57:29.391Z,24.82
2019-03-27T10:58:29.369Z,24.99
2019-03-27T10:59:29.357Z,24.89
2019-03-27T11:00:29.346Z,24.85
2019-03-27T11:01:29.339Z,24.86
2019-03-27T11:02:29.343Z,24.94
2019-03-27T11:03:29.317Z,24.97
2019-03-27T11:04:29.307Z,24.96
2019-03-27T11:05:29.300Z,25.03
2019-03-27T11:06:29.299Z,25.07
2019-03-27T11:07:29.292Z,25.04
2019-03-27T11:08:29.271Z,25.11
2019-03-27T11:09:29.260Z,25.09
2019-03-27T11:10:29.250Z,25.01
2019-03-27T11:11:29.241Z,24.94
2019-03-27T11:12:29.242Z,25.06
2019-03-27T11:13:29.221Z,24.99
2019-03-27T11:14:37.642Z,24.99
2019-03-27T11:15:30.198Z,24.97
2019-03-27T11:16:29.187Z,24.86
2019-03-27T11:17:29.187Z,24.99
2019-03-27T11:18:29.167Z,25.00
2019-03-27T11:19:29.163Z,25.01
2019-03-27T11:20:31.324Z,25.07
2019-03-27T11:21:29.137Z,25.11
2019-03-27T11:22:29.138Z,25.18
2019-03-27T11:23:29.119Z,25.16
2019-03-27T11:24:29.111Z,25.16
2019-03-27T11:25:29.096Z,25.12
2019-03-27T11:26:29.101Z,25.12
2019-03-27T11:27:29.098Z,25.11
2019-03-27T11:28:29.072Z,25.12
2019-03-27T11:29:29.056Z,25.15
2019-03-27T11:30:29.047Z,25.16
2019-03-27T11:31:29.033Z,25.12
2019-03-27T11:32:29.044Z,25.14
2019-03-27T11:33:29.165Z,25.16
2019-03-27T11:34:29.001Z,25.16
2019-03-27T11:35:28.997Z,25.15
2019-03-27T11:36:28.989Z,25.14
2019-03-27T11:37:28.991Z,25.18
2019-03-27T11:38:28.968Z,25.12
2019-03-27T11:39:28.956Z,25.06
2019-03-27T11:40:28.941Z,25.15
2019-03-27T11:41:28.936Z,25.14
2019-03-27T11:42:28.951Z,25.12
2019-03-27T11:43:28.915Z,25.19
2019-03-27T11:44:28.904Z,25.15
2019-03-27T11:45:28.897Z,25.26
2019-03-27T11:46:31.961Z,25.24
2019-03-27T11:47:28.886Z,25.21
2019-03-27T11:48:28.873Z,25.31
2019-03-27T11:49:28.851Z,25.24
2019-03-27T11:50:28.839Z,25.19
2019-03-27T11:51:28.828Z,25.14
2019-03-27T11:52:29.872Z,25.12
2019-03-27T11:53:28.837Z,25.14
2019-03-27T11:54:28.797Z,25.19
2019-03-27T11:55:28.795Z,25.18
2019-03-27T11:56:28.780Z,25.18
2019-03-27T11:57:28.770Z,25.16
2019-03-27T11:58:28.787Z,25.25
2019-03-27T11:59:28.746Z,25.31
2019-03-27T12:00:28.742Z,25.36
2019-03-27T12:01:39.211Z,25.39
2019-03-27T12:02:29.717Z,25.40
2019-03-27T12:03:28.725Z,25.31
2019-03-27T12:04:28.694Z,25.39
2019-03-27T12:05:28.687Z,25.26
2019-03-27T12:06:28.675Z,25.22
2019-03-27T12:07:28.672Z,25.24
2019-03-27T12:08:28.671Z,25.24
2019-03-27T12:09:28.647Z,25.21
2019-03-27T12:10:28.632Z,25.25
2019-03-27T12:11:28.627Z,25.22
2019-03-27T12:12:28.627Z,25.30
2019-03-27T12:13:28.618Z,25.25
2019-03-27T12:14:28.593Z,25.26
2019-03-27T12:15:28.589Z,25.21
2019-03-27T12:16:28.578Z,25.26
2019-03-27T12:17:28.568Z,25.24
2019-03-27T12:18:31.715Z,25.21
2019-03-27T12:19:28.542Z,25.16
2019-03-27T12:20:28.539Z,25.16
2019-03-27T12:21:28.523Z,25.16
2019-03-27T12:22:28.517Z,25.16
2019-03-27T12:23:28.517Z,25.16
2019-03-27T12:24:28.963Z,25.29
2019-03-27T12:25:28.482Z,25.30
2019-03-27T12:26:28.472Z,25.26
2019-03-27T12:27:28.464Z,25.22
2019-03-27T12:28:28.471Z,25.31
2019-03-27T12:29:28.438Z,25.25
2019-03-27T12:30:28.433Z,25.22
2019-03-27T12:31:28.418Z,25.18
2019-03-27T12:32:28.414Z,25.11
2019-03-27T12:33:28.417Z,25.14
2019-03-27T12:34:28.395Z,25.11
2019-03-27T12:35:28.379Z,25.18
2019-03-27T12:36:28.374Z,25.11
2019-03-27T12:37:28.363Z,25.22
2019-03-27T12:38:28.376Z,25.15
2019-03-27T12:39:28.337Z,25.15
2019-03-27T12:40:28.325Z,25.16
2019-03-27T12:41:28.314Z,25.18
2019-03-27T12:42:28.306Z,25.06
2019-03-27T12:43:28.313Z,24.97
2019-03-27T12:44:28.287Z,24.93
2019-03-27T12:45:28.274Z,24.74
2019-03-27T12:46:28.262Z,24.77
2019-03-27T12:47:28.253Z,24.65
2019-03-27T12:48:28.258Z,24.56
2019-03-27T12:49:28.226Z,24.44
2019-03-27T12:50:28.218Z,24.40
2019-03-27T12:51:28.219Z,24.21
2019-03-27T12:52:28.204Z,24.14